Terminal Aerodrome Forecast
Issued by NWS

Home | Current Version | Previous Version | Graphics & Text | Print | Product List | Glossary On
Versions: 1 2 3 4 5 6 7 8 9 10 11 12 13
000
FTUS43 KICT 302329
TAFCNU
TAF
KCNU 302329Z 3100/3124 15006KT P6SM OVC090
     FM311300 15007KT P6SM -RA SCT015 OVC030
     FM312000 16012KT P6SM -RA OVC015=

USA.gov is the U.S. government's official web portal to all federal, state and local government web resources and services.